Providence, Rhode Island
Traffic Map
Current Weather Conditions
Providence, Rhode Island
Scattered Clouds
Scattered Clouds
76°
Feels Like: 76°
Wind Chill: 76° Ceiling: Unl
Heat Index: 76° Visibility: 10mi
Dew Point: 64° Wind: 9mph
Humidity: 67% Direction: 250° (WSW)
Pressure: 29.91in Gusts: 0mph
Raw Report DataKPVD 280251Z 25008KT 10SM SCT080 24/18 A2991 RMK AO2 SLP127 T02440178 51012
Traffic Incident Summary
Active as of:
Severity:
Category:
InformationThere was an issue retrieving the traffic information for this location. Please try a different location or try again shortly.
Advertisements
Track Severe Weather on mobile